sensor_id;sensor_type;location;lat;lon;timestamp;pressure;altitude;pressure_sealevel;temperature;humidity
42169;BME280;27838;43.858;25.974;2023-02-13T00:00:46;103210.88;;;6.36;41.87
42169;BME280;27838;43.858;25.974;2023-02-13T00:03:13;103220.72;;;6.41;41.47
42169;BME280;27838;43.858;25.974;2023-02-13T00:05:40;103213.03;;;6.43;41.94
42169;BME280;27838;43.858;25.974;2023-02-13T00:08:06;103217.31;;;6.42;41.64
42169;BME280;27838;43.858;25.974;2023-02-13T00:10:33;103215.53;;;6.41;41.27
42169;BME280;27838;43.858;25.974;2023-02-13T00:12:59;103212.66;;;6.37;41.90
42169;BME280;27838;43.858;25.974;2023-02-13T00:15:26;103217.94;;;6.38;41.08
42169;BME280;27838;43.858;25.974;2023-02-13T00:17:52;103218.81;;;6.39;41.92
42169;BME280;27838;43.858;25.974;2023-02-13T00:20:19;103222.25;;;6.38;41.03
42169;BME280;27838;43.858;25.974;2023-02-13T00:22:45;103222.25;;;6.38;41.16
42169;BME280;27838;43.858;25.974;2023-02-13T00:25:12;103224.09;;;6.40;40.92
42169;BME280;27838;43.858;25.974;2023-02-13T00:27:38;103230.97;;;6.40;41.46
42169;BME280;27838;43.858;25.974;2023-02-13T00:30:06;103229.00;;;6.36;41.69
42169;BME280;27838;43.858;25.974;2023-02-13T00:32:32;103233.56;;;6.40;41.06
42169;BME280;27838;43.858;25.974;2023-02-13T00:34:59;103230.34;;;6.44;40.52
42169;BME280;27838;43.858;25.974;2023-02-13T00:37:25;103225.16;;;6.44;41.44
42169;BME280;27838;43.858;25.974;2023-02-13T00:39:52;103216.59;;;6.45;40.93
42169;BME280;27838;43.858;25.974;2023-02-13T00:42:19;103215.06;;;6.49;40.38
42169;BME280;27838;43.858;25.974;2023-02-13T00:44:48;103224.69;;;6.51;40.02
42169;BME280;27838;43.858;25.974;2023-02-13T00:47:14;103228.56;;;6.43;40.37
42169;BME280;27838;43.858;25.974;2023-02-13T00:49:41;103226.41;;;6.51;40.28
42169;BME280;27838;43.858;25.974;2023-02-13T00:52:07;103220.16;;;6.47;40.07
42169;BME280;27838;43.858;25.974;2023-02-13T00:54:35;103234.09;;;6.49;40.29
42169;BME280;27838;43.858;25.974;2023-02-13T00:57:02;103234.19;;;6.51;40.72
42169;BME280;27838;43.858;25.974;2023-02-13T00:59:29;103231.69;;;6.52;40.82
42169;BME280;27838;43.858;25.974;2023-02-13T01:01:55;103229.09;;;6.52;40.63
42169;BME280;27838;43.858;25.974;2023-02-13T01:04:22;103220.44;;;6.52;40.28
42169;BME280;27838;43.858;25.974;2023-02-13T01:06:48;103226.50;;;6.52;40.45
42169;BME280;27838;43.858;25.974;2023-02-13T01:09:15;103235.06;;;6.51;40.40
42169;BME280;27838;43.858;25.974;2023-02-13T01:11:41;103231.16;;;6.43;40.33
42169;BME280;27838;43.858;25.974;2023-02-13T01:14:08;103231.88;;;6.40;40.41
42169;BME280;27838;43.858;25.974;2023-02-13T01:16:34;103224.66;;;6.35;39.94
42169;BME280;27838;43.858;25.974;2023-02-13T01:19:01;103218.63;;;6.36;40.02
42169;BME280;27838;43.858;25.974;2023-02-13T01:21:27;103214.28;;;6.35;40.00
42169;BME280;27838;43.858;25.974;2023-02-13T01:23:54;103216.06;;;6.36;40.65
42169;BME280;27838;43.858;25.974;2023-02-13T01:26:22;103207.41;;;6.35;40.87
42169;BME280;27838;43.858;25.974;2023-02-13T01:28:53;103204.81;;;6.35;40.15
42169;BME280;27838;43.858;25.974;2023-02-13T01:31:21;103204.09;;;6.38;40.14
42169;BME280;27838;43.858;25.974;2023-02-13T01:33:48;103198.00;;;6.37;40.33
42169;BME280;27838;43.858;25.974;2023-02-13T01:36:15;103201.56;;;6.39;40.08
42169;BME280;27838;43.858;25.974;2023-02-13T01:38:42;103197.31;;;6.40;39.66
42169;BME280;27838;43.858;25.974;2023-02-13T01:41:09;103194.53;;;6.37;40.22
42169;BME280;27838;43.858;25.974;2023-02-13T01:43:45;103207.31;;;6.34;39.94
42169;BME280;27838;43.858;25.974;2023-02-13T01:46:16;103204.28;;;6.26;40.48
42169;BME280;27838;43.858;25.974;2023-02-13T01:48:44;103208.03;;;6.16;40.45
42169;BME280;27838;43.858;25.974;2023-02-13T01:51:17;103210.53;;;6.15;40.46
42169;BME280;27838;43.858;25.974;2023-02-13T01:53:52;103207.84;;;6.13;41.20
42169;BME280;27838;43.858;25.974;2023-02-13T01:56:43;103212.41;;;6.17;41.18
42169;BME280;27838;43.858;25.974;2023-02-13T01:59:17;103202.75;;;6.15;40.76
42169;BME280;27838;43.858;25.974;2023-02-13T02:01:45;103211.44;;;6.15;40.39
42169;BME280;27838;43.858;25.974;2023-02-13T02:04:17;103220.78;;;6.13;40.23
42169;BME280;27838;43.858;25.974;2023-02-13T02:06:50;103215.00;;;6.17;40.32
42169;BME280;27838;43.858;25.974;2023-02-13T02:09:20;103216.63;;;6.15;40.91
42169;BME280;27838;43.858;25.974;2023-02-13T02:11:58;103213.41;;;6.19;40.02
42169;BME280;27838;43.858;25.974;2023-02-13T02:14:26;103210.53;;;6.15;40.43
42169;BME280;27838;43.858;25.974;2023-02-13T02:16:53;103216.25;;;6.09;40.71
42169;BME280;27838;43.858;25.974;2023-02-13T02:19:40;103217.69;;;6.04;40.45
42169;BME280;27838;43.858;25.974;2023-02-13T02:30:31;103214.25;;;5.90;40.59
42169;BME280;27838;43.858;25.974;2023-02-13T02:33:30;103210.13;;;5.94;40.51
42169;BME280;27838;43.858;25.974;2023-02-13T02:36:48;103204.81;;;5.91;40.66
42169;BME280;27838;43.858;25.974;2023-02-13T02:39:20;103202.88;;;6.01;40.25
42169;BME280;27838;43.858;25.974;2023-02-13T02:47:11;103208.19;;;6.04;40.28
42169;BME280;27838;43.858;25.974;2023-02-13T02:50:31;103209.13;;;6.05;39.73
42169;BME280;27838;43.858;25.974;2023-02-13T02:56:10;103205.38;;;6.00;39.88
42169;BME280;27838;43.858;25.974;2023-02-13T03:01:31;103213.13;;;6.00;39.96
42169;BME280;27838;43.858;25.974;2023-02-13T03:07:10;103208.75;;;5.99;39.78
42169;BME280;27838;43.858;25.974;2023-02-13T03:09:44;103211.34;;;5.99;40.00
42169;BME280;27838;43.858;25.974;2023-02-13T03:12:37;103200.00;;;5.97;39.44
42169;BME280;27838;43.858;25.974;2023-02-13T03:15:22;103213.16;;;5.86;39.92
42169;BME280;27838;43.858;25.974;2023-02-13T03:17:49;103208.19;;;5.90;40.17
42169;BME280;27838;43.858;25.974;2023-02-13T03:20:44;103210.97;;;5.93;40.51
42169;BME280;27838;43.858;25.974;2023-02-13T03:23:38;103206.88;;;5.96;39.86
42169;BME280;27838;43.858;25.974;2023-02-13T03:29:10;103211.25;;;5.97;40.32
42169;BME280;27838;43.858;25.974;2023-02-13T03:35:19;103212.72;;;5.94;40.03
42169;BME280;27838;43.858;25.974;2023-02-13T03:38:17;103216.13;;;5.93;40.33
42169;BME280;27838;43.858;25.974;2023-02-13T03:41:06;103221.91;;;5.89;40.14
42169;BME280;27838;43.858;25.974;2023-02-13T03:43:50;103221.91;;;5.89;39.74
42169;BME280;27838;43.858;25.974;2023-02-13T03:46:21;103216.94;;;5.92;40.09
42169;BME280;27838;43.858;25.974;2023-02-13T03:48:50;103217.75;;;5.91;39.86
42169;BME280;27838;43.858;25.974;2023-02-13T03:51:43;103216.59;;;5.85;40.26
42169;BME280;27838;43.858;25.974;2023-02-13T03:54:24;103203.69;;;5.72;40.42
42169;BME280;27838;43.858;25.974;2023-02-13T03:57:14;103206.09;;;5.69;40.63
42169;BME280;27838;43.858;25.974;2023-02-13T04:00:02;103199.84;;;5.65;41.06
42169;BME280;27838;43.858;25.974;2023-02-13T04:02:33;103204.41;;;5.70;41.16
42169;BME280;27838;43.858;25.974;2023-02-13T04:05:08;103207.06;;;5.71;41.30
42169;BME280;27838;43.858;25.974;2023-02-13T04:07:38;103205.41;;;5.72;40.90
42169;BME280;27838;43.858;25.974;2023-02-13T04:10:08;103211.38;;;5.71;40.99
42169;BME280;27838;43.858;25.974;2023-02-13T04:15:08;103204.13;;;5.65;41.38
42169;BME280;27838;43.858;25.974;2023-02-13T04:17:42;103212.25;;;5.56;40.74
42169;BME280;27838;43.858;25.974;2023-02-13T04:20:10;103211.53;;;5.59;41.78
42169;BME280;27838;43.858;25.974;2023-02-13T04:22:47;103209.75;;;5.58;41.29
42169;BME280;27838;43.858;25.974;2023-02-13T04:25:16;103210.63;;;5.58;41.16
42169;BME280;27838;43.858;25.974;2023-02-13T04:27:42;103211.53;;;5.59;40.75
42169;BME280;27838;43.858;25.974;2023-02-13T04:30:10;103207.31;;;5.61;41.09
42169;BME280;27838;43.858;25.974;2023-02-13T04:32:36;103217.78;;;5.62;40.59
42169;BME280;27838;43.858;25.974;2023-02-13T04:35:03;103217.31;;;5.55;41.00
42169;BME280;27838;43.858;25.974;2023-02-13T04:37:30;103221.78;;;5.57;40.90
42169;BME280;27838;43.858;25.974;2023-02-13T04:39:56;103219.28;;;5.59;40.74
42169;BME280;27838;43.858;25.974;2023-02-13T04:42:23;103217.41;;;5.56;40.70
42169;BME280;27838;43.858;25.974;2023-02-13T04:44:49;103216.69;;;5.59;40.74
42169;BME280;27838;43.858;25.974;2023-02-13T04:47:16;103221.88;;;5.59;41.16
42169;BME280;27838;43.858;25.974;2023-02-13T04:49:42;103217.59;;;5.59;41.06
42169;BME280;27838;43.858;25.974;2023-02-13T04:52:09;103224.56;;;5.60;40.66
42169;BME280;27838;43.858;25.974;2023-02-13T04:54:35;103223.66;;;5.60;41.15
42169;BME280;27838;43.858;25.974;2023-02-13T04:57:02;103221.19;;;5.61;40.89
42169;BME280;27838;43.858;25.974;2023-02-13T04:59:28;103222.06;;;5.62;40.43
42169;BME280;27838;43.858;25.974;2023-02-13T05:01:55;103212.34;;;5.58;40.28
42169;BME280;27838;43.858;25.974;2023-02-13T05:04:23;103221.09;;;5.60;40.63
42169;BME280;27838;43.858;25.974;2023-02-13T05:06:50;103232.59;;;5.65;39.84
42169;BME280;27838;43.858;25.974;2023-02-13T05:09:17;103232.41;;;5.62;40.42
42169;BME280;27838;43.858;25.974;2023-02-13T05:11:43;103236.06;;;5.65;40.13
42169;BME280;27838;43.858;25.974;2023-02-13T05:14:10;103238.66;;;5.65;40.30
42169;BME280;27838;43.858;25.974;2023-02-13T05:16:36;103236.06;;;5.65;40.50
42169;BME280;27838;43.858;25.974;2023-02-13T05:19:03;103244.72;;;5.66;40.11
42169;BME280;27838;43.858;25.974;2023-02-13T05:21:29;103250.81;;;5.66;40.48
42169;BME280;27838;43.858;25.974;2023-02-13T05:24:14;103255.38;;;5.71;39.86
42169;BME280;27838;43.858;25.974;2023-02-13T05:26:40;103253.66;;;5.71;40.40
42169;BME280;27838;43.858;25.974;2023-02-13T05:29:08;103252.88;;;5.72;40.86
42169;BME280;27838;43.858;25.974;2023-02-13T05:31:52;103248.13;;;5.65;41.42
42169;BME280;27838;43.858;25.974;2023-02-13T05:34:21;103253.31;;;5.80;41.91
42169;BME280;27838;43.858;25.974;2023-02-13T05:36:48;103259.31;;;5.94;42.21
42169;BME280;27838;43.858;25.974;2023-02-13T05:39:15;103255.56;;;5.89;42.19
42169;BME280;27838;43.858;25.974;2023-02-13T05:41:43;103268.34;;;5.85;43.05
42169;BME280;27838;43.858;25.974;2023-02-13T05:44:11;103276.28;;;5.89;42.79
42169;BME280;27838;43.858;25.974;2023-02-13T05:46:38;103277.44;;;5.94;42.93
42169;BME280;27838;43.858;25.974;2023-02-13T05:49:05;103265.38;;;6.22;43.15
42169;BME280;27838;43.858;25.974;2023-02-13T05:51:32;103255.50;;;7.08;41.02
42169;BME280;27838;43.858;25.974;2023-02-13T05:53:59;103256.91;;;7.67;39.43
42169;BME280;27838;43.858;25.974;2023-02-13T05:56:25;103257.00;;;8.19;38.76
42169;BME280;27838;43.858;25.974;2023-02-13T05:58:55;103259.84;;;8.58;37.74
42169;BME280;27838;43.858;25.974;2023-02-13T06:01:22;103258.34;;;8.81;37.23
42169;BME280;27838;43.858;25.974;2023-02-13T06:03:49;103256.59;;;9.00;36.88
42169;BME280;27838;43.858;25.974;2023-02-13T06:06:16;103263.06;;;9.08;37.09
42169;BME280;27838;43.858;25.974;2023-02-13T06:08:43;103269.09;;;9.07;37.15
42169;BME280;27838;43.858;25.974;2023-02-13T06:11:10;103267.84;;;8.99;36.87
42169;BME280;27838;43.858;25.974;2023-02-13T06:13:36;103275.22;;;8.90;36.96
42169;BME280;27838;43.858;25.974;2023-02-13T06:16:06;103271.56;;;8.68;37.15
42169;BME280;27838;43.858;25.974;2023-02-13T06:18:33;103270.69;;;8.49;37.48
42169;BME280;27838;43.858;25.974;2023-02-13T06:21:00;103266.16;;;8.29;37.64
42169;BME280;27838;43.858;25.974;2023-02-13T06:23:27;103262.41;;;8.06;37.47
42169;BME280;27838;43.858;25.974;2023-02-13T06:25:54;103264.28;;;7.92;37.90
42169;BME280;27838;43.858;25.974;2023-02-13T06:28:20;103258.28;;;7.77;37.51
42169;BME280;27838;43.858;25.974;2023-02-13T06:30:47;103261.13;;;7.65;37.92
42169;BME280;27838;43.858;25.974;2023-02-13T06:33:14;103262.91;;;7.49;38.24
42169;BME280;27838;43.858;25.974;2023-02-13T06:35:40;103266.66;;;7.38;38.34
42169;BME280;27838;43.858;25.974;2023-02-13T06:38:07;103269.63;;;7.29;38.77
42169;BME280;27838;43.858;25.974;2023-02-13T06:40:33;103269.16;;;7.20;38.98
42169;BME280;27838;43.858;25.974;2023-02-13T06:43:00;103267.00;;;7.13;39.17
42169;BME280;27838;43.858;25.974;2023-02-13T06:45:26;103271.88;;;7.07;39.14
42169;BME280;27838;43.858;25.974;2023-02-13T06:47:53;103251.97;;;6.91;39.20
42169;BME280;27838;43.858;25.974;2023-02-13T06:50:19;103262.66;;;6.97;38.95
42169;BME280;27838;43.858;25.974;2023-02-13T06:52:47;103261.59;;;6.93;39.00
42169;BME280;27838;43.858;25.974;2023-02-13T06:55:14;103258.13;;;6.93;38.76
42169;BME280;27838;43.858;25.974;2023-02-13T06:57:42;103257.16;;;6.91;38.75
42169;BME280;27838;43.858;25.974;2023-02-13T07:00:10;103251.16;;;6.92;39.16
42169;BME280;27838;43.858;25.974;2023-02-13T07:02:41;103244.91;;;6.88;38.89
42169;BME280;27838;43.858;25.974;2023-02-13T07:05:09;103246.69;;;6.89;39.21
42169;BME280;27838;43.858;25.974;2023-02-13T07:07:38;103235.44;;;6.89;38.70
42169;BME280;27838;43.858;25.974;2023-02-13T07:10:07;103242.41;;;6.90;39.47
42169;BME280;27838;43.858;25.974;2023-02-13T07:12:35;103236.50;;;6.92;38.81
42169;BME280;27838;43.858;25.974;2023-02-13T07:15:03;103233.09;;;6.93;39.21
42169;BME280;27838;43.858;25.974;2023-02-13T07:17:30;103237.56;;;6.96;39.20
42169;BME280;27838;43.858;25.974;2023-02-13T07:19:58;103231.50;;;6.95;38.87
42169;BME280;27838;43.858;25.974;2023-02-13T07:22:24;103234.00;;;6.94;38.42
42169;BME280;27838;43.858;25.974;2023-02-13T07:24:51;103233.81;;;6.91;38.55
42169;BME280;27838;43.858;25.974;2023-02-13T07:27:17;103227.91;;;6.93;38.73
42169;BME280;27838;43.858;25.974;2023-02-13T07:29:44;103227.44;;;7.00;38.83
42169;BME280;27838;43.858;25.974;2023-02-13T07:32:10;103230.69;;;7.13;39.12
42169;BME280;27838;43.858;25.974;2023-02-13T07:34:37;103228.69;;;7.24;39.26
42169;BME280;27838;43.858;25.974;2023-02-13T07:37:03;103224.69;;;7.30;38.10
42169;BME280;27838;43.858;25.974;2023-02-13T07:39:30;103221.66;;;7.37;37.84
42169;BME280;27838;43.858;25.974;2023-02-13T07:41:57;103221.63;;;7.54;37.43
42169;BME280;27838;43.858;25.974;2023-02-13T07:44:23;103215.97;;;7.61;38.19
42169;BME280;27838;43.858;25.974;2023-02-13T07:46:50;103216.41;;;7.70;36.21
42169;BME280;27838;43.858;25.974;2023-02-13T07:49:16;103213.66;;;7.84;36.63
42169;BME280;27838;43.858;25.974;2023-02-13T07:51:43;103211.50;;;7.93;35.85
42169;BME280;27838;43.858;25.974;2023-02-13T07:54:09;103214.59;;;8.02;35.47
42169;BME280;27838;43.858;25.974;2023-02-13T07:56:36;103216.84;;;8.12;34.81
42169;BME280;27838;43.858;25.974;2023-02-13T07:59:02;103209.50;;;8.22;35.50
42169;BME280;27838;43.858;25.974;2023-02-13T08:01:29;103210.19;;;8.36;34.75
42169;BME280;27838;43.858;25.974;2023-02-13T08:03:55;103210.72;;;8.46;34.69
42169;BME280;27838;43.858;25.974;2023-02-13T08:06:22;103203.38;;;8.56;34.75
42169;BME280;27838;43.858;25.974;2023-02-13T08:08:49;103202.75;;;8.61;34.61
42169;BME280;27838;43.858;25.974;2023-02-13T08:11:36;103204.72;;;8.65;34.85
42169;BME280;27838;43.858;25.974;2023-02-13T08:14:17;103198.81;;;8.69;34.73
42169;BME280;27838;43.858;25.974;2023-02-13T08:16:43;103201.13;;;8.81;34.81
42169;BME280;27838;43.858;25.974;2023-02-13T08:19:10;103192.78;;;8.88;34.43
42169;BME280;27838;43.858;25.974;2023-02-13T08:21:37;103194.03;;;8.97;34.30
42169;BME280;27838;43.858;25.974;2023-02-13T08:24:05;103198.97;;;9.10;34.43
42169;BME280;27838;43.858;25.974;2023-02-13T08:26:32;103193.34;;;9.20;34.69
42169;BME280;27838;43.858;25.974;2023-02-13T08:28:59;103198.31;;;9.34;34.85
42169;BME280;27838;43.858;25.974;2023-02-13T08:31:26;103177.34;;;9.31;34.73
42169;BME280;27838;43.858;25.974;2023-02-13T08:33:52;103180.91;;;9.33;34.57
42169;BME280;27838;43.858;25.974;2023-02-13T08:36:19;103194.44;;;9.45;34.54
42169;BME280;27838;43.858;25.974;2023-02-13T08:38:46;103191.28;;;9.52;34.88
42169;BME280;27838;43.858;25.974;2023-02-13T08:41:13;103188.09;;;9.58;34.97
42169;BME280;27838;43.858;25.974;2023-02-13T08:43:39;103182.50;;;9.70;34.53
42169;BME280;27838;43.858;25.974;2023-02-13T08:46:06;103179.59;;;9.83;34.27
42169;BME280;27838;43.858;25.974;2023-02-13T08:48:33;103173.97;;;9.93;34.41
42169;BME280;27838;43.858;25.974;2023-02-13T08:51:04;103174.09;;;9.96;33.91
42169;BME280;27838;43.858;25.974;2023-02-13T08:53:32;103174.53;;;10.07;33.57
42169;BME280;27838;43.858;25.974;2023-02-13T08:55:59;103172.50;;;10.21;33.39
42169;BME280;27838;43.858;25.974;2023-02-13T08:58:25;103174.03;;;10.37;33.55
42169;BME280;27838;43.858;25.974;2023-02-13T09:00:52;103170.25;;;10.51;33.06
42169;BME280;27838;43.858;25.974;2023-02-13T09:03:19;103173.63;;;10.49;33.44
42169;BME280;27838;43.858;25.974;2023-02-13T09:05:45;103168.78;;;10.58;33.45
42169;BME280;27838;43.858;25.974;2023-02-13T09:08:12;103172.97;;;10.77;33.32
42169;BME280;27838;43.858;25.974;2023-02-13T09:10:40;103165.28;;;10.80;33.25
42169;BME280;27838;43.858;25.974;2023-02-13T09:13:08;103155.25;;;10.91;33.21
42169;BME280;27838;43.858;25.974;2023-02-13T09:15:38;103163.06;;;10.91;33.43
42169;BME280;27838;43.858;25.974;2023-02-13T09:18:05;103158.06;;;10.97;33.71
42169;BME280;27838;43.858;25.974;2023-02-13T09:20:32;103147.63;;;10.97;33.84
42169;BME280;27838;43.858;25.974;2023-02-13T09:22:58;103142.34;;;10.95;32.83
42169;BME280;27838;43.858;25.974;2023-02-13T09:25:25;103141.03;;;11.07;32.20
42169;BME280;27838;43.858;25.974;2023-02-13T09:27:51;103125.44;;;11.08;32.38
42169;BME280;27838;43.858;25.974;2023-02-13T09:30:18;103134.88;;;11.29;32.46
42169;BME280;27838;43.858;25.974;2023-02-13T09:32:50;103128.13;;;11.36;32.79
42169;BME280;27838;43.858;25.974;2023-02-13T09:35:17;103127.56;;;11.44;32.32
42169;BME280;27838;43.858;25.974;2023-02-13T09:37:44;103127.78;;;11.50;32.38
42169;BME280;27838;43.858;25.974;2023-02-13T09:40:24;103119.50;;;11.62;32.09
42169;BME280;27838;43.858;25.974;2023-02-13T09:42:52;103117.53;;;11.82;32.50
42169;BME280;27838;43.858;25.974;2023-02-13T09:45:20;103105.81;;;11.97;31.65
42169;BME280;27838;43.858;25.974;2023-02-13T09:47:47;103104.56;;;12.11;31.70
42169;BME280;27838;43.858;25.974;2023-02-13T09:50:30;103097.75;;;12.16;31.88
42169;BME280;27838;43.858;25.974;2023-02-13T09:52:59;103094.63;;;12.28;31.64
42169;BME280;27838;43.858;25.974;2023-02-13T09:55:54;103088.09;;;12.42;30.86
42169;BME280;27838;43.858;25.974;2023-02-13T09:58:47;103078.00;;;12.56;30.96
42169;BME280;27838;43.858;25.974;2023-02-13T10:01:34;103070.16;;;12.56;30.70
42169;BME280;27838;43.858;25.974;2023-02-13T10:07:01;103052.25;;;12.69;30.96
42169;BME280;27838;43.858;25.974;2023-02-13T10:10:02;103048.59;;;12.95;30.98
42169;BME280;27838;43.858;25.974;2023-02-13T10:13:10;103046.22;;;13.04;31.44
42169;BME280;27838;43.858;25.974;2023-02-13T10:18:08;103043.31;;;12.94;31.78
42169;BME280;27838;43.858;25.974;2023-02-13T10:20:44;103037.06;;;12.89;32.16
42169;BME280;27838;43.858;25.974;2023-02-13T10:26:01;103025.72;;;13.21;31.46
42169;BME280;27838;43.858;25.974;2023-02-13T10:28:59;103015.56;;;13.32;31.08
42169;BME280;27838;43.858;25.974;2023-02-13T10:31:48;103013.94;;;13.37;31.49
42169;BME280;27838;43.858;25.974;2023-02-13T10:34:21;103017.47;;;13.39;31.89
42169;BME280;27838;43.858;25.974;2023-02-13T10:36:50;103011.50;;;13.45;31.83
42169;BME280;27838;43.858;25.974;2023-02-13T10:39:29;103015.25;;;13.55;32.13
42169;BME280;27838;43.858;25.974;2023-02-13T10:42:19;103008.91;;;13.47;32.26
42169;BME280;27838;43.858;25.974;2023-02-13T10:48:01;103006.72;;;13.64;31.78
42169;BME280;27838;43.858;25.974;2023-02-13T10:58:18;103001.84;;;13.09;33.24
42169;BME280;27838;43.858;25.974;2023-02-13T11:01:00;103001.94;;;13.14;33.44
42169;BME280;27838;43.858;25.974;2023-02-13T11:03:29;102984.75;;;13.23;33.54
42169;BME280;27838;43.858;25.974;2023-02-13T11:05:57;102986.78;;;13.34;33.05
42169;BME280;27838;43.858;25.974;2023-02-13T11:08:39;102975.09;;;13.22;32.81
42169;BME280;27838;43.858;25.974;2023-02-13T11:17:00;102970.22;;;13.01;33.60
42169;BME280;27838;43.858;25.974;2023-02-13T11:19:34;102971.50;;;13.17;33.35
42169;BME280;27838;43.858;25.974;2023-02-13T11:22:08;102967.56;;;13.33;33.11
42169;BME280;27838;43.858;25.974;2023-02-13T11:24:39;102952.03;;;13.41;33.29
42169;BME280;27838;43.858;25.974;2023-02-13T11:27:09;102958.22;;;13.45;33.49
42169;BME280;27838;43.858;25.974;2023-02-13T11:29:57;102954.53;;;13.36;32.98
42169;BME280;27838;43.858;25.974;2023-02-13T11:32:26;102963.84;;;13.25;33.51
42169;BME280;27838;43.858;25.974;2023-02-13T11:34:54;102956.38;;;13.06;34.55
42169;BME280;27838;43.858;25.974;2023-02-13T11:37:26;102952.66;;;12.97;35.05
42169;BME280;27838;43.858;25.974;2023-02-13T11:39:58;102942.97;;;12.93;35.31
42169;BME280;27838;43.858;25.974;2023-02-13T11:42:33;102937.56;;;12.87;35.90
42169;BME280;27838;43.858;25.974;2023-02-13T11:45:07;102936.59;;;12.83;35.75
42169;BME280;27838;43.858;25.974;2023-02-13T11:47:45;102923.78;;;12.94;35.94
42169;BME280;27838;43.858;25.974;2023-02-13T11:50:27;102916.06;;;12.99;36.61
42169;BME280;27838;43.858;25.974;2023-02-13T11:52:57;102922.19;;;12.99;37.05
42169;BME280;27838;43.858;25.974;2023-02-13T11:55:31;102921.44;;;13.03;36.33
42169;BME280;27838;43.858;25.974;2023-02-13T12:00:32;102911.06;;;13.08;36.41
42169;BME280;27838;43.858;25.974;2023-02-13T12:03:25;102909.34;;;13.10;36.42
42169;BME280;27838;43.858;25.974;2023-02-13T12:08:36;102901.41;;;13.06;36.57
42169;BME280;27838;43.858;25.974;2023-02-13T12:11:16;102906.56;;;13.02;37.05
42169;BME280;27838;43.858;25.974;2023-02-13T12:13:46;102907.22;;;12.94;37.13
42169;BME280;27838;43.858;25.974;2023-02-13T12:16:29;102902.72;;;12.88;37.49
42169;BME280;27838;43.858;25.974;2023-02-13T12:18:59;102899.84;;;12.79;37.40
42169;BME280;27838;43.858;25.974;2023-02-13T12:21:56;102905.94;;;12.78;37.93
42169;BME280;27838;43.858;25.974;2023-02-13T12:27:48;102896.34;;;12.45;38.27
42169;BME280;27838;43.858;25.974;2023-02-13T12:33:33;102898.00;;;12.09;39.23
42169;BME280;27838;43.858;25.974;2023-02-13T12:39:04;102893.16;;;12.23;39.52
42169;BME280;27838;43.858;25.974;2023-02-13T12:41:37;102892.81;;;12.43;39.19
42169;BME280;27838;43.858;25.974;2023-02-13T12:44:30;102900.41;;;12.34;39.42
42169;BME280;27838;43.858;25.974;2023-02-13T12:47:28;102893.38;;;12.31;39.65
42169;BME280;27838;43.858;25.974;2023-02-13T13:03:41;102894.19;;;12.30;39.97
42169;BME280;27838;43.858;25.974;2023-02-13T13:15:16;102879.78;;;12.78;39.42
42169;BME280;27838;43.858;25.974;2023-02-13T13:18:32;102890.31;;;12.81;39.02
42169;BME280;27838;43.858;25.974;2023-02-13T13:21:02;102884.84;;;12.72;38.82
42169;BME280;27838;43.858;25.974;2023-02-13T13:26:34;102875.25;;;12.37;39.68
42169;BME280;27838;43.858;25.974;2023-02-13T13:29:11;102881.44;;;12.41;39.41
42169;BME280;27838;43.858;25.974;2023-02-13T13:31:50;102872.50;;;12.33;39.56
42169;BME280;27838;43.858;25.974;2023-02-13T13:34:22;102855.69;;;12.24;39.79
42169;BME280;27838;43.858;25.974;2023-02-13T13:37:02;102856.56;;;12.23;39.38
42169;BME280;27838;43.858;25.974;2023-02-13T13:47:46;102847.50;;;12.44;39.60
42169;BME280;27838;43.858;25.974;2023-02-13T13:50:20;102842.38;;;12.49;39.28
42169;BME280;27838;43.858;25.974;2023-02-13T14:03:44;102828.41;;;12.46;39.39
42169;BME280;27838;43.858;25.974;2023-02-13T14:06:20;102829.16;;;12.42;39.18
42169;BME280;27838;43.858;25.974;2023-02-13T14:11:29;102825.31;;;12.30;39.63
42169;BME280;27838;43.858;25.974;2023-02-13T14:13:56;102821.69;;;12.24;39.64
42169;BME280;27838;43.858;25.974;2023-02-13T14:16:42;102823.78;;;12.04;40.11
42169;BME280;27838;43.858;25.974;2023-02-13T14:19:25;102827.16;;;12.00;40.40
42169;BME280;27838;43.858;25.974;2023-02-13T14:25:01;102828.50;;;11.87;40.98
42169;BME280;27838;43.858;25.974;2023-02-13T14:27:34;102819.56;;;11.79;40.99
42169;BME280;27838;43.858;25.974;2023-02-13T14:30:04;102827.19;;;11.71;41.37
42169;BME280;27838;43.858;25.974;2023-02-13T14:32:36;102833.13;;;11.66;41.47
42169;BME280;27838;43.858;25.974;2023-02-13T14:37:54;102836.47;;;11.62;41.68
42169;BME280;27838;43.858;25.974;2023-02-13T14:42:53;102832.94;;;11.60;41.28
42169;BME280;27838;43.858;25.974;2023-02-13T14:45:23;102837.09;;;11.53;41.43
42169;BME280;27838;43.858;25.974;2023-02-13T14:47:54;102841.28;;;11.46;41.74
42169;BME280;27838;43.858;25.974;2023-02-13T14:50:45;102837.69;;;11.43;41.91
42169;BME280;27838;43.858;25.974;2023-02-13T14:53:20;102829.03;;;11.45;42.15
42169;BME280;27838;43.858;25.974;2023-02-13T14:55:54;102829.19;;;11.50;42.00
42169;BME280;27838;43.858;25.974;2023-02-13T14:58:25;102835.22;;;11.49;42.30
42169;BME280;27838;43.858;25.974;2023-02-13T15:01:10;102829.75;;;11.40;42.33
42169;BME280;27838;43.858;25.974;2023-02-13T15:03:48;102826.06;;;11.33;42.64
42169;BME280;27838;43.858;25.974;2023-02-13T15:06:24;102825.22;;;11.34;42.67
42169;BME280;27838;43.858;25.974;2023-02-13T15:08:52;102816.44;;;11.32;42.89
42169;BME280;27838;43.858;25.974;2023-02-13T15:11:37;102817.56;;;11.40;42.96
42169;BME280;27838;43.858;25.974;2023-02-13T15:14:22;102815.06;;;11.43;42.66
42169;BME280;27838;43.858;25.974;2023-02-13T15:17:20;102802.63;;;11.34;43.07